Decoded Metar for KGPH ( in ) (IATA:) | Meteo·Mobile Aviation Weather
aviador You're here:

KGPH Decoded Metar

in
Report Time2019-07-16 10:35:00
UTC Time2019-07-16 10:26:26
Flight Rules ifr IFR
WindCalm
Visibility9999 m
Phenomena:N/A
Clouds:Overcast 006 Hf
Expected CloudBase > 400 ft AGL from Temp-Dew spread
Ceiling600 ft
Temp21°C
Dew Point20°C (94% RH)
QNH1013 hPa
Raw Report
KGPH 161035Z AUTO 00000KT 10SM OVC006 21/20 A2990 RMK AO2=

Extra information for KGPH:More info

Social comments